Terminal Aerodrome Forecast
Issued by NWS Rapid City, SD

Home | Current Version | Previous Version | Text Only | Print | Product List | Glossary On
Versions: 1 2 3 4 5 6 7 8 9 10 11 12 13 14 15 16 17 18 19 20 21
000
FTUS43 KUNR 311900 AAB
TAFRAP
TAF AMD
KRAP 311953Z 3120/0118 08011KT 1/2SM FG OVC002
      TEMPO 3120/3124 1/4SM -FZDZ FG
     FM010000 02012KT 1SM -SN BR OVC007
     FM011200 35012KT P6SM OVC020=

USA.gov is the U.S. government's official web portal to all federal, state and local government web resources and services.